METAR Data
IDs: Format: Raw Decoded Include TAF

Data at: 1521 UTC 21 Sep 2018

KBZN 211456Z 16004KT 10SM CLR 06/01 A3021 RMK AO2 SLP235 T00560011 51008
KBZN 211356Z 20003KT 10SM CLR 02/00 A3020 RMK AO2 SLP232 T00170000
KBZN 211256Z 05004KT 10SM CLR 00/M02 A3020 RMK AO2 SLP227 T00001017
KBZN 211156Z 15004KT 10SM CLR 01/M01 A3018 RMK AO2 SLP215 T00111011 10067 20000 52001
KBZN 211056Z 00000KT 10SM CLR 01/M01 A3018 RMK AO2 SLP216 T00061011
KBZN 210956Z AUTO 00000KT 10SM CLR 03/00 A3017 RMK AO2 SLP211 T00330000
KBZN 210856Z AUTO 24004KT 10SM CLR 04/01 A3017 RMK AO2 SLP212 T00440006 50003
KBZN 210756Z AUTO 00000KT 10SM CLR 04/01 A3018 RMK AO2 SLP213 T00440006
KBZN 210656Z AUTO 04004KT 10SM CLR 03/00 A3018 RMK AO2 SLP219 T00280000 401830028
KBZN 210556Z 16008KT 10SM CLR 07/01 A3016 RMK AO2 SLP208 T00670011 10172 20050 51013
KBZN 210456Z 18007KT 10SM CLR 07/01 A3016 RMK AO2 SLP212 T00670011
KBZN 210356Z 16008KT 10SM CLR 06/02 A3015 RMK AO2 SLP211 T00560022
KBZN 210256Z VRB03KT 10SM CLR 08/03 A3012 RMK AO2 SLP199 T00780028 53019
KBZN 210156Z 36003KT 10SM CLR 12/00 A3009 RMK AO2 SLP182 T01220000
KBZN 210056Z 31004KT 10SM CLR 15/00 A3007 RMK AO2 SLP171 T01500000
KBZN 202356Z 29011KT 10SM CLR 17/M02 A3006 RMK AO2 SLP162 60000 T01721022 10183 20122 53003
KBZN 202256Z 29014G19KT 10SM CLR 18/M02 A3005 RMK AO2 SLP159 T01781017
KBZN 202156Z 28014G19KT 10SM SCT100 18/01 A3005 RMK AO2 RAE06 SLP156 P0000 T01780006
KBZN 202056Z 27008KT 10SM -RA FEW034 BKN090 OVC100 15/02 A3005 RMK AO2 RAB42 SLP162 P0000 60000 T01500022 56004
KBZN 201956Z 29014G21KT 10SM FEW050 BKN100 16/02 A3005 RMK AO2 SLP161 T01610022
KBZN 201856Z 29012G16KT 10SM FEW037 15/05 A3005 RMK AO2 RAB16E31 SLP164 P0000 T01500050
KBZN 201756Z VRB05KT 10SM FEW021 SCT026 BKN095 13/07 A3006 RMK AO2 SLP171 T01330067 10133 20078 50008
KBZN 201746Z VRB03KT 10SM FEW019 SCT025 BKN095 13/07 A3007 RMK AO2 T01280067
KBZN 201731Z 36004KT 10SM SCT020 BKN025 BKN100 12/07 A3007 RMK AO2 T01220072
KBZN 201656Z 00000KT 10SM FEW017 SCT046 BKN110 11/07 A3007 RMK AO2 SLP173 T01060067
KBZN 201556Z 00000KT 10SM FEW011 BKN050 OVC080 09/07 A3005 RMK AO2 SLP174 T00940067
KBZN 201456Z 00000KT 10SM BKN065 09/07 A3003 RMK AO2 SLP164 T00890072 53008
KBZN 201445Z 16003KT 10SM SCT017 BKN065 09/08 A3003 RMK AO2 T00890078
KBZN 201356Z 00000KT 10SM BKN020 BKN044 OVC065 08/07 A3002 RMK AO2 SLP158 T00830067
KBZN 201352Z 00000KT 10SM BKN020 BKN044 OVC070 08/07 A3002 RMK AO2
KBZN 201256Z 29003KT 10SM FEW022 BKN050 OVC070 08/07 A3001 RMK AO2 SLP154 T00780067
KBZN 201156Z 28003KT 10SM BKN034 OVC048 08/07 A2999 RMK AO2 SLP147 60005 70005 T00780067 10089 20072 53006
KBZN 201118Z 29005KT 10SM SCT003 SCT032 OVC050 08/07 A2998 RMK AO2 T00780067
KBZN 201056Z 28005KT 10SM BKN004 OVC050 08/07 A2998 RMK AO2 SLP139 T00780067
KBZN 201036Z AUTO 28005KT 10SM FEW005 SCT010 OVC050 08/07 A2998 RMK AO2 T00830072
KBZN 201016Z AUTO 29004KT 10SM SCT016 OVC055 08/07 A2998 RMK AO2 T00830072
KBZN 200956Z AUTO 27003KT 10SM BKN016 BKN048 OVC060 08/07 A2997 RMK AO2 RAE17 SLP136 P0001 T00830072
KBZN 200923Z AUTO 23005KT 10SM OVC010 08/07 A2997 RMK AO2 RAE17 CIG 007V013 P0001 T00830072
KBZN 200856Z AUTO 23004KT 8SM -RA OVC008 08/07 A2997 RMK AO2 RAE09B51 CIG 006V010 SLP136 P0002 60004 T00830072 58005
KBZN 200845Z AUTO 23005KT 10SM BKN008 OVC017 08/07 A2998 RMK AO2 RAE09 P0002 T00830072
KBZN 200836Z AUTO 22005KT 10SM SCT009 BKN018 OVC060 08/07 A2998 RMK AO2 RAE09 P0002 T00830072
KBZN 200809Z AUTO 14006KT 10SM FEW008 SCT018 OVC055 08/06 A2998 RMK AO2 RAE09 P0001 T00780061
KBZN 200756Z AUTO 12007KT 10SM -RA SCT007 BKN017 OVC060 08/06 A2999 RMK AO2 RAB23 SLP140 P0002 T00780061
KBZN 200747Z AUTO 12004KT 7SM -RA SCT007 BKN021 OVC046 08/06 A2999 RMK AO2 RAB23 P0001 T00780061
KBZN 200742Z AUTO 5SM -RA BR BKN009 BKN015 OVC021 08/07 A2999 RMK AO2 RAB23 P0001 T00830067
KBZN 200656Z 23005KT 10SM OVC024 08/04 A3001 RMK AO2 SLP149 T00830044 401610078
KBZN 200633Z 29007KT 10SM BKN027 OVC033 08/05 A3000 RMK AO2 T00830050
KBZN 200556Z 13006KT 10SM SCT030 SCT035 08/04 A2999 RMK AO2 SLP144 T00780044 10133 20078 58001
KBZN 200456Z 18006KT 10SM BKN110 09/04 A2999 RMK AO2 SLP146 T00890044
KBZN 200356Z 13005KT 10SM FEW035 SCT120 08/04 A3000 RMK AO2 SLP151 T00830044